createdAt,value
2018-11-05T00:01:19.663Z,12.03
2018-11-05T00:03:47.747Z,11.70
2018-11-05T00:06:15.857Z,12.67
2018-11-05T00:08:43.999Z,13.17
2018-11-05T00:11:12.279Z,12.40
2018-11-05T00:13:40.631Z,11.60
2018-11-05T00:16:08.912Z,13.77
2018-11-05T00:18:37.123Z,11.73
2018-11-05T00:21:05.609Z,13.87
2018-11-05T00:23:33.707Z,11.37
2018-11-05T00:26:01.770Z,11.87
2018-11-05T00:28:29.939Z,10.80
2018-11-05T00:30:57.993Z,12.80
2018-11-05T00:33:26.057Z,10.20
2018-11-05T00:35:54.115Z,11.47
2018-11-05T00:38:22.332Z,11.80
2018-11-05T00:40:50.445Z,10.77
2018-11-05T00:43:18.480Z,11.70
2018-11-05T00:45:46.635Z,12.10
2018-11-05T00:48:14.661Z,12.47
2018-11-05T00:50:42.938Z,12.40
2018-11-05T00:53:11.049Z,11.40
2018-11-05T00:55:39.116Z,9.80
2018-11-05T00:58:07.251Z,11.50
2018-11-05T01:00:35.387Z,11.67
2018-11-05T01:03:03.471Z,12.20
2018-11-05T01:05:31.548Z,10.97
2018-11-05T01:07:59.600Z,10.60
2018-11-05T01:10:27.832Z,12.10
2018-11-05T01:12:55.895Z,13.20
2018-11-05T01:15:23.965Z,12.20
2018-11-05T01:17:52.071Z,11.50
2018-11-05T01:20:20.171Z,10.93
2018-11-05T01:22:48.301Z,12.07
2018-11-05T01:25:16.380Z,10.57
2018-11-05T01:27:44.459Z,11.60
2018-11-05T01:30:13.567Z,10.40
2018-11-05T01:32:41.681Z,11.60
2018-11-05T01:35:11.476Z,11.93
2018-11-05T01:37:39.566Z,12.40
2018-11-05T01:40:09.745Z,10.83
2018-11-05T01:42:38.223Z,12.37
2018-11-05T01:45:07.857Z,12.10
2018-11-05T01:47:35.980Z,11.17
2018-11-05T01:50:04.353Z,12.27
2018-11-05T01:52:32.469Z,12.33
2018-11-05T01:55:00.600Z,11.93
2018-11-05T01:57:28.709Z,10.63
2018-11-05T01:59:56.821Z,11.33
2018-11-05T02:02:24.924Z,11.35
2018-11-05T02:04:53.059Z,10.80
2018-11-05T02:07:21.173Z,10.30
2018-11-05T02:09:49.386Z,10.60
2018-11-05T02:12:17.509Z,11.57
2018-11-05T02:14:45.581Z,11.50
2018-11-05T02:17:13.749Z,10.93
2018-11-05T02:19:42.892Z,12.88
2018-11-05T02:22:11.276Z,12.70
2018-11-05T02:24:39.405Z,13.33
2018-11-05T02:27:07.559Z,10.97
2018-11-05T02:29:35.644Z,11.63
2018-11-05T02:32:03.764Z,13.07
2018-11-05T02:34:31.905Z,12.98
2018-11-05T02:37:00.132Z,11.80
2018-11-05T02:39:28.255Z,11.85
2018-11-05T02:41:56.354Z,12.20
2018-11-05T02:44:24.490Z,11.10
2018-11-05T02:46:52.826Z,12.68
2018-11-05T02:49:20.929Z,11.85
2018-11-05T02:51:49.012Z,12.05
2018-11-05T02:54:17.139Z,11.40
2018-11-05T02:56:45.252Z,14.05
2018-11-05T02:59:13.393Z,11.93
2018-11-05T03:01:41.489Z,11.70
2018-11-05T03:04:09.638Z,12.28
2018-11-05T03:06:37.744Z,11.57
2018-11-05T03:09:08.782Z,11.20
2018-11-05T03:11:37.063Z,12.25
2018-11-05T03:14:05.429Z,11.00
2018-11-05T03:16:33.579Z,10.13
2018-11-05T03:19:01.674Z,11.08
2018-11-05T03:21:29.764Z,11.53
2018-11-05T03:23:57.857Z,9.43
2018-11-05T03:26:25.928Z,9.73
2018-11-05T03:28:54.105Z,11.20
2018-11-05T03:31:22.369Z,10.05
2018-11-05T03:33:50.642Z,9.98
2018-11-05T03:36:18.745Z,9.20
2018-11-05T03:38:46.854Z,11.40
2018-11-05T03:41:14.999Z,9.15
2018-11-05T03:43:43.060Z,9.83
2018-11-05T03:46:11.184Z,11.88
2018-11-05T03:48:39.278Z,10.10
2018-11-05T03:51:07.381Z,10.50
2018-11-05T03:53:35.506Z,9.78
2018-11-05T03:56:03.675Z,10.43
2018-11-05T03:58:31.665Z,9.63
2018-11-05T04:00:59.803Z,8.05
2018-11-05T04:03:27.959Z,9.00
2018-11-05T04:05:55.979Z,8.48
2018-11-05T04:08:24.073Z,9.23
2018-11-05T04:10:52.150Z,9.28
2018-11-05T04:13:20.224Z,8.88
2018-11-05T04:15:48.408Z,9.95
2018-11-05T04:18:16.431Z,8.30
2018-11-05T04:20:44.501Z,10.60
2018-11-05T04:23:12.624Z,9.63
2018-11-05T04:25:40.689Z,9.90
2018-11-05T04:28:08.766Z,9.88
2018-11-05T04:30:36.837Z,9.73
2018-11-05T04:33:05.357Z,10.53
2018-11-05T04:35:33.438Z,9.88
2018-11-05T04:38:01.507Z,10.80
2018-11-05T04:40:29.713Z,11.03
2018-11-05T04:42:57.793Z,8.78
2018-11-05T04:45:25.921Z,10.65
2018-11-05T04:47:54.017Z,10.05
2018-11-05T04:50:22.110Z,9.80
2018-11-05T04:52:50.185Z,9.45
2018-11-05T04:55:18.314Z,8.73
2018-11-05T04:57:46.389Z,9.95
2018-11-05T05:00:16.798Z,15.63
2018-11-05T05:02:44.900Z,11.30
2018-11-05T05:05:14.185Z,12.03
2018-11-05T05:07:42.432Z,10.93
2018-11-05T05:10:10.975Z,9.98
2018-11-05T05:12:40.252Z,10.70
2018-11-05T05:15:08.740Z,9.55
2018-11-05T05:17:37.097Z,8.58
2018-11-05T05:20:07.829Z,8.85
2018-11-05T05:22:36.036Z,6.75
2018-11-05T05:25:04.117Z,9.10
2018-11-05T05:27:32.201Z,8.75
2018-11-05T05:30:00.316Z,8.73
2018-11-05T05:32:28.388Z,8.03
2018-11-05T05:34:56.533Z,8.55
2018-11-05T05:37:24.597Z,6.72
2018-11-05T05:39:52.681Z,8.40
2018-11-05T05:42:20.773Z,8.35
2018-11-05T05:44:48.854Z,8.00
2018-11-05T05:47:17.032Z,7.47
2018-11-05T05:49:45.093Z,7.45
2018-11-05T05:52:13.175Z,7.75
2018-11-05T05:54:41.246Z,9.03
2018-11-05T05:57:09.474Z,7.85
2018-11-05T05:59:37.559Z,7.35
2018-11-05T06:02:06.450Z,7.22
2018-11-05T06:04:34.576Z,6.83
2018-11-05T06:07:02.654Z,6.45
2018-11-05T06:09:30.750Z,7.60
2018-11-05T06:11:58.887Z,7.20
2018-11-05T06:14:26.999Z,7.47
2018-11-05T06:16:55.078Z,7.15
2018-11-05T06:19:23.118Z,6.95
2018-11-05T06:21:51.301Z,7.15
2018-11-05T06:24:19.253Z,6.03
2018-11-05T06:26:47.349Z,6.55
2018-11-05T06:29:15.433Z,5.83
2018-11-05T06:31:43.501Z,7.10
2018-11-05T06:34:11.585Z,6.95
2018-11-05T06:36:39.709Z,6.47
2018-11-05T06:39:11.459Z,5.90
2018-11-05T06:41:40.093Z,6.30
2018-11-05T06:44:08.305Z,5.65
2018-11-05T06:46:36.333Z,5.60
2018-11-05T06:49:04.488Z,7.08
2018-11-05T06:51:32.802Z,6.60
2018-11-05T06:54:00.881Z,6.53
2018-11-05T06:56:28.953Z,5.53
2018-11-05T06:58:57.053Z,6.42
2018-11-05T07:01:25.123Z,6.03
2018-11-05T07:03:53.200Z,7.28
2018-11-05T07:06:21.272Z,7.17
2018-11-05T07:08:49.348Z,6.67
2018-11-05T07:11:17.679Z,8.00
2018-11-05T07:13:45.646Z,6.47
2018-11-05T07:16:13.711Z,6.78
2018-11-05T07:18:42.006Z,7.83
2018-11-05T07:21:09.948Z,7.50
2018-11-05T07:23:38.205Z,6.90
2018-11-05T07:26:07.342Z,7.80
2018-11-05T07:28:35.458Z,7.05
2018-11-05T07:31:03.550Z,9.65
2018-11-05T07:33:31.774Z,9.05
2018-11-05T07:35:59.654Z,7.95
2018-11-05T07:38:27.729Z,7.97
2018-11-05T07:40:55.810Z,7.55
2018-11-05T07:43:23.910Z,9.23
2018-11-05T07:45:51.983Z,9.55
2018-11-05T07:48:20.058Z,7.75
2018-11-05T07:50:48.228Z,9.13
2018-11-05T07:53:16.324Z,8.15
2018-11-05T07:55:44.425Z,8.70
2018-11-05T07:58:12.521Z,7.90
2018-11-05T08:01:11.220Z,8.58
2018-11-05T08:03:39.296Z,6.80
2018-11-05T08:06:07.402Z,7.03
2018-11-05T08:08:35.478Z,8.10
2018-11-05T08:11:03.581Z,9.05
2018-11-05T08:13:31.640Z,9.28
2018-11-05T08:15:59.741Z,7.40
2018-11-05T08:18:27.804Z,9.75
2018-11-05T08:20:56.003Z,8.80
2018-11-05T08:23:24.308Z,8.75
2018-11-05T08:25:52.400Z,8.73
2018-11-05T08:28:20.459Z,8.40
2018-11-05T08:30:48.555Z,7.85
2018-11-05T08:33:16.810Z,9.28
2018-11-05T08:35:44.897Z,7.78
2018-11-05T08:38:13.001Z,9.35
2018-11-05T08:40:41.066Z,9.73
2018-11-05T08:43:09.162Z,8.50
2018-11-05T08:45:37.259Z,8.75
2018-11-05T08:48:05.328Z,8.80
2018-11-05T08:50:33.454Z,8.70
2018-11-05T08:53:01.525Z,7.85
2018-11-05T08:55:29.665Z,8.95
2018-11-05T08:57:57.752Z,9.68
2018-11-05T09:00:31.322Z,9.60
2018-11-05T09:02:59.434Z,11.75
2018-11-05T09:05:27.507Z,9.70
2018-11-05T09:07:56.230Z,8.73
2018-11-05T09:10:24.535Z,8.20
2018-11-05T09:12:52.440Z,9.40
2018-11-05T09:15:21.573Z,8.70
2018-11-05T09:17:49.704Z,9.18
2018-11-05T09:20:18.652Z,7.45
2018-11-05T09:22:47.457Z,8.75
2018-11-05T09:25:16.319Z,9.65
2018-11-05T09:27:44.487Z,7.75
2018-11-05T09:30:14.636Z,9.68
2018-11-05T09:32:43.313Z,8.28
2018-11-05T09:35:11.417Z,8.40
2018-11-05T09:37:39.622Z,8.10
2018-11-05T09:40:10.085Z,8.73
2018-11-05T09:42:39.117Z,9.48
2018-11-05T09:45:09.916Z,8.85
2018-11-05T09:47:38.041Z,8.10
2018-11-05T09:50:07.400Z,8.20
2018-11-05T09:52:35.526Z,9.17
2018-11-05T09:55:03.595Z,9.50
2018-11-05T09:57:31.663Z,10.20
2018-11-05T09:59:59.769Z,9.97
2018-11-05T10:02:33.961Z,9.97
2018-11-05T10:05:02.255Z,10.97
2018-11-05T10:07:30.073Z,10.17
2018-11-05T10:09:58.148Z,10.80
2018-11-05T10:12:26.324Z,9.80
2018-11-05T10:14:54.404Z,12.00
2018-11-05T10:17:22.466Z,9.90
2018-11-05T10:19:50.581Z,10.70
2018-11-05T10:22:18.659Z,10.80
2018-11-05T10:24:46.845Z,9.63
2018-11-05T10:27:14.777Z,9.63
2018-11-05T10:29:42.839Z,11.30
2018-11-05T10:32:10.921Z,10.87
2018-11-05T10:34:39.034Z,11.03
2018-11-05T10:37:07.170Z,11.73
2018-11-05T10:39:35.283Z,11.20
2018-11-05T10:42:03.377Z,10.27
2018-11-05T10:44:31.445Z,10.03
2018-11-05T10:46:59.573Z,9.93
2018-11-05T10:49:27.674Z,10.80
2018-11-05T10:51:55.839Z,11.57
2018-11-05T10:54:23.824Z,11.50
2018-11-05T10:56:51.970Z,12.80
2018-11-05T10:59:20.037Z,11.27
2018-11-05T11:01:53.626Z,12.10
2018-11-05T11:04:27.051Z,11.83
2018-11-05T11:06:55.049Z,11.30
2018-11-05T11:09:23.149Z,11.13
2018-11-05T11:11:51.263Z,11.93
2018-11-05T11:14:19.360Z,11.80
2018-11-05T11:16:47.434Z,10.70
2018-11-05T11:19:15.593Z,10.53
2018-11-05T11:21:43.708Z,12.27
2018-11-05T11:24:11.847Z,9.50
2018-11-05T11:26:39.950Z,9.27
2018-11-05T11:29:08.219Z,9.27
2018-11-05T11:31:36.371Z,8.73
2018-11-05T11:34:04.453Z,7.70
2018-11-05T11:36:32.622Z,7.17
2018-11-05T11:39:00.670Z,8.60
2018-11-05T11:41:28.785Z,9.37
2018-11-05T11:43:56.869Z,9.37
2018-11-05T11:46:24.924Z,8.40
2018-11-05T11:48:52.992Z,10.00
2018-11-05T11:51:21.052Z,10.00
2018-11-05T11:53:49.158Z,10.00
2018-11-05T11:56:17.311Z,9.60
2018-11-05T11:58:45.473Z,8.50
2018-11-05T12:01:13.496Z,8.03
2018-11-05T12:03:41.602Z,9.10
2018-11-05T12:06:09.620Z,8.13
2018-11-05T12:08:37.724Z,10.47
2018-11-05T12:11:05.917Z,11.10
2018-11-05T12:13:34.084Z,10.47
2018-11-05T12:16:02.155Z,11.00
2018-11-05T12:18:30.217Z,11.23
2018-11-05T12:20:58.341Z,10.93
2018-11-05T12:23:26.443Z,11.83
2018-11-05T12:25:54.536Z,10.93
2018-11-05T12:28:22.599Z,11.67
2018-11-05T12:30:50.698Z,12.03
2018-11-05T12:33:18.842Z,10.57
2018-11-05T12:35:46.896Z,11.27
2018-11-05T12:38:14.973Z,10.93
2018-11-05T12:40:43.041Z,10.53
2018-11-05T12:43:11.161Z,10.60
2018-11-05T12:45:39.228Z,11.00
2018-11-05T12:48:07.302Z,10.10
2018-11-05T12:50:35.429Z,8.37
2018-11-05T12:53:03.510Z,8.00
2018-11-05T12:55:31.591Z,8.53
2018-11-05T12:57:59.721Z,8.33
2018-11-05T13:00:27.861Z,9.00
2018-11-05T13:02:58.305Z,8.03
2018-11-05T13:05:27.209Z,7.97
2018-11-05T13:07:55.317Z,8.43
2018-11-05T13:10:23.629Z,8.10
2018-11-05T13:12:51.713Z,8.23
2018-11-05T13:15:19.871Z,7.93
2018-11-05T13:17:47.933Z,7.80
2018-11-05T13:20:18.201Z,7.10
2018-11-05T13:22:46.688Z,8.10
2018-11-05T13:25:14.850Z,6.90
2018-11-05T13:27:44.270Z,6.93
2018-11-05T13:30:13.140Z,7.80
2018-11-05T13:32:41.640Z,7.10
2018-11-05T13:35:11.965Z,6.23
2018-11-05T13:37:40.462Z,6.13
2018-11-05T13:40:10.696Z,7.30
2018-11-05T13:42:38.827Z,6.93
2018-11-05T13:45:08.444Z,6.80
2018-11-05T13:47:37.208Z,5.70
2018-11-05T13:50:05.466Z,6.20
2018-11-05T13:52:33.371Z,6.47
2018-11-05T13:55:01.706Z,6.57
2018-11-05T13:57:29.415Z,9.73
2018-11-05T13:59:57.537Z,6.37
2018-11-05T14:02:25.673Z,5.27
2018-11-05T14:04:53.729Z,5.60
2018-11-05T14:07:21.813Z,6.70
2018-11-05T14:09:49.900Z,5.60
2018-11-05T14:12:18.005Z,6.43
2018-11-05T14:14:46.098Z,6.10
2018-11-05T14:17:14.213Z,7.70
2018-11-05T14:19:42.296Z,8.37
2018-11-05T14:22:10.444Z,8.50
2018-11-05T14:24:38.504Z,8.40
2018-11-05T14:27:06.640Z,8.10
2018-11-05T14:29:35.313Z,6.43
2018-11-05T14:32:02.855Z,7.53
2018-11-05T14:34:30.950Z,6.80
2018-11-05T14:36:59.139Z,8.53
2018-11-05T14:39:27.076Z,8.03
2018-11-05T14:41:55.131Z,7.50
2018-11-05T14:44:23.226Z,5.70
2018-11-05T14:46:51.291Z,7.27
2018-11-05T14:49:19.359Z,6.93
2018-11-05T14:51:47.482Z,6.57
2018-11-05T14:54:15.568Z,8.40
2018-11-05T14:56:43.649Z,7.43
2018-11-05T14:59:11.754Z,7.97
2018-11-05T15:01:39.823Z,8.73
2018-11-05T15:04:07.936Z,8.23
2018-11-05T15:06:36.032Z,7.63
2018-11-05T15:09:05.925Z,7.20
2018-11-05T15:11:34.009Z,7.47
2018-11-05T15:14:02.132Z,7.80
2018-11-05T15:16:30.183Z,7.90
2018-11-05T15:18:58.538Z,7.90
2018-11-05T15:21:26.436Z,8.33
2018-11-05T15:23:54.659Z,8.40
2018-11-05T15:26:22.773Z,8.53
2018-11-05T15:28:50.867Z,8.93
2018-11-05T15:31:18.960Z,8.50
2018-11-05T15:33:47.144Z,7.77
2018-11-05T15:36:15.201Z,8.73
2018-11-05T15:38:43.334Z,8.37
2018-11-05T15:41:11.511Z,7.37
2018-11-05T15:43:39.640Z,8.33
2018-11-05T15:46:08.140Z,8.40
2018-11-05T15:48:36.221Z,8.03
2018-11-05T15:51:04.480Z,7.97
2018-11-05T15:53:32.755Z,10.00
2018-11-05T15:56:00.634Z,10.33
2018-11-05T15:58:28.717Z,9.10
2018-11-05T16:00:56.817Z,9.03
2018-11-05T16:03:24.909Z,10.10
2018-11-05T16:05:53.010Z,16.57
2018-11-05T16:08:21.141Z,15.10
2018-11-05T16:10:49.302Z,16.87
2018-11-05T16:13:17.468Z,17.60
2018-11-05T16:15:45.544Z,18.70
2018-11-05T16:18:13.692Z,16.60
2018-11-05T16:20:41.830Z,18.83
2018-11-05T16:23:09.935Z,20.33
2018-11-05T16:25:38.080Z,21.20
2018-11-05T16:28:06.719Z,17.87
2018-11-05T16:30:34.846Z,19.20
2018-11-05T16:33:02.929Z,16.27
2018-11-05T16:35:31.087Z,14.50
2018-11-05T16:37:59.144Z,12.37
2018-11-05T16:40:27.275Z,14.30
2018-11-05T16:42:55.595Z,12.87
2018-11-05T16:45:23.834Z,12.27
2018-11-05T16:47:52.077Z,9.77
2018-11-05T16:50:22.068Z,12.90
2018-11-05T16:52:50.136Z,13.50
2018-11-05T16:55:18.292Z,14.40
2018-11-05T16:57:46.436Z,14.30
2018-11-05T17:00:15.110Z,12.27
2018-11-05T17:02:44.158Z,11.73
2018-11-05T17:05:12.077Z,11.33
2018-11-05T17:07:40.455Z,10.80
2018-11-05T17:10:10.201Z,8.70
2018-11-05T17:12:38.312Z,13.70
2018-11-05T17:15:08.245Z,11.37
2018-11-05T17:17:36.376Z,11.20
2018-11-05T17:20:05.456Z,14.27
2018-11-05T17:22:33.541Z,14.23
2018-11-05T17:25:01.637Z,20.57
2018-11-05T17:27:29.792Z,14.10
2018-11-05T17:29:58.136Z,10.23
2018-11-05T17:32:26.251Z,9.67
2018-11-05T17:34:54.365Z,10.20
2018-11-05T17:37:22.488Z,12.17
2018-11-05T17:39:50.584Z,14.17
2018-11-05T17:42:19.554Z,15.43
2018-11-05T17:44:47.708Z,16.40
2018-11-05T17:47:15.777Z,17.17
2018-11-05T17:49:43.889Z,17.93
2018-11-05T17:52:12.036Z,18.37
2018-11-05T17:54:40.138Z,20.03
2018-11-05T17:57:08.312Z,13.03
2018-11-05T17:59:36.324Z,13.97
2018-11-05T18:02:04.409Z,12.17
2018-11-05T18:04:32.651Z,12.80
2018-11-05T18:07:00.605Z,11.93
2018-11-05T18:09:28.960Z,12.83
2018-11-05T18:11:56.919Z,12.97
2018-11-05T18:14:25.053Z,14.03
2018-11-05T18:16:53.169Z,17.43
2018-11-05T18:19:21.304Z,14.00
2018-11-05T18:21:49.564Z,16.50
2018-11-05T18:24:17.745Z,17.23
2018-11-05T18:26:45.794Z,15.43
2018-11-05T18:29:13.942Z,16.97
2018-11-05T18:31:42.058Z,13.30
2018-11-05T18:34:10.334Z,12.40
2018-11-05T18:36:38.418Z,11.33
2018-11-05T18:39:08.720Z,10.50
2018-11-05T18:41:37.194Z,10.70
2018-11-05T18:44:05.420Z,10.77
2018-11-05T18:46:33.525Z,9.87
2018-11-05T18:49:01.614Z,10.30
2018-11-05T18:51:29.820Z,8.90
2018-11-05T18:53:57.902Z,9.20
2018-11-05T18:56:26.011Z,11.90
2018-11-05T18:58:54.100Z,16.33
2018-11-05T19:01:22.263Z,18.73
2018-11-05T19:03:50.526Z,14.03
2018-11-05T19:06:18.566Z,13.50
2018-11-05T19:08:46.653Z,11.60
2018-11-05T19:11:14.717Z,11.60
2018-11-05T19:13:42.848Z,11.23
2018-11-05T19:16:10.912Z,9.60
2018-11-05T19:18:38.972Z,9.43
2018-11-05T19:21:07.075Z,10.47
2018-11-05T19:23:35.275Z,8.63
2018-11-05T19:26:03.317Z,9.37
2018-11-05T19:28:31.458Z,9.70
2018-11-05T19:30:59.529Z,9.77
2018-11-05T19:33:27.723Z,9.60
2018-11-05T19:35:55.855Z,10.83
2018-11-05T19:38:23.849Z,11.07
2018-11-05T19:40:51.953Z,9.83
2018-11-05T19:43:20.058Z,10.50
2018-11-05T19:45:48.149Z,10.63
2018-11-05T19:48:16.248Z,9.17
2018-11-05T19:50:44.338Z,10.70
2018-11-05T19:53:12.447Z,11.70
2018-11-05T19:55:40.579Z,10.83
2018-11-05T19:58:08.796Z,9.80
2018-11-05T20:00:36.944Z,9.43
2018-11-05T20:03:05.426Z,9.00
2018-11-05T20:05:33.597Z,10.10
2018-11-05T20:08:01.662Z,9.70
2018-11-05T20:10:29.784Z,8.73
2018-11-05T20:12:57.852Z,10.20
2018-11-05T20:15:25.992Z,9.90
2018-11-05T20:17:54.922Z,10.33
2018-11-05T20:20:24.061Z,13.07
2018-11-05T20:22:52.290Z,12.70
2018-11-05T20:25:20.344Z,14.63
2018-11-05T20:27:48.439Z,11.00
2018-11-05T20:30:22.602Z,11.70
2018-11-05T20:32:51.867Z,11.00
2018-11-05T20:35:19.735Z,11.90
2018-11-05T20:37:47.865Z,11.93
2018-11-05T20:40:17.290Z,11.17
2018-11-05T20:42:46.383Z,10.27
2018-11-05T20:45:15.231Z,11.30
2018-11-05T20:47:43.693Z,12.00
2018-11-05T20:50:12.604Z,11.07
2018-11-05T20:52:40.745Z,10.40
2018-11-05T20:55:09.995Z,10.20
2018-11-05T20:57:38.557Z,11.33
2018-11-05T21:00:08.268Z,11.97
2018-11-05T21:02:36.402Z,10.73
2018-11-05T21:05:04.715Z,11.43
2018-11-05T21:07:32.875Z,12.50
2018-11-05T21:10:00.946Z,10.77
2018-11-05T21:12:29.309Z,11.00
2018-11-05T21:14:57.539Z,10.23
2018-11-05T21:17:25.589Z,11.35
2018-11-05T21:19:53.682Z,11.87
2018-11-05T21:22:21.828Z,11.43
2018-11-05T21:24:49.841Z,10.30
2018-11-05T21:27:18.121Z,9.35
2018-11-05T21:29:46.253Z,10.40
2018-11-05T21:32:14.398Z,11.08
2018-11-05T21:34:42.515Z,12.20
2018-11-05T21:37:10.561Z,9.88
2018-11-05T21:39:38.634Z,10.00
2018-11-05T21:42:06.856Z,10.90
2018-11-05T21:44:34.986Z,10.18
2018-11-05T21:47:03.057Z,10.50
2018-11-05T21:49:31.196Z,10.58
2018-11-05T21:51:59.281Z,10.43
2018-11-05T21:54:27.518Z,11.68
2018-11-05T21:56:55.580Z,11.38
2018-11-05T21:59:23.657Z,10.85
2018-11-05T22:01:51.845Z,10.35
2018-11-05T22:04:20.009Z,11.70
2018-11-05T22:06:48.079Z,10.38
2018-11-05T22:09:16.184Z,12.20
2018-11-05T22:11:44.281Z,10.70
2018-11-05T22:14:12.397Z,9.78
2018-11-05T22:16:40.472Z,10.90
2018-11-05T22:19:08.550Z,11.57
2018-11-05T22:21:36.696Z,10.23
2018-11-05T22:24:05.354Z,12.63
2018-11-05T22:26:33.464Z,12.13
2018-11-05T22:29:01.571Z,10.90
2018-11-05T22:31:29.729Z,9.73
2018-11-05T22:33:57.939Z,11.20
2018-11-05T22:36:26.081Z,10.72
2018-11-05T22:38:54.101Z,10.68
2018-11-05T22:41:22.229Z,9.20
2018-11-05T22:43:50.370Z,10.78
2018-11-05T22:46:18.528Z,9.68
2018-11-05T22:48:46.617Z,10.30
2018-11-05T22:51:14.745Z,10.23
2018-11-05T22:53:42.844Z,11.05
2018-11-05T22:56:10.949Z,10.25
2018-11-05T22:58:39.040Z,9.48
2018-11-05T23:01:08.515Z,12.23
2018-11-05T23:03:36.725Z,11.33
2018-11-05T23:06:04.809Z,9.28
2018-11-05T23:08:32.912Z,10.95
2018-11-05T23:11:01.428Z,9.83
2018-11-05T23:13:29.534Z,9.48
2018-11-05T23:15:57.597Z,9.98
2018-11-05T23:18:25.896Z,10.43
2018-11-05T23:20:54.025Z,10.32
2018-11-05T23:23:22.169Z,8.55
2018-11-05T23:25:50.323Z,9.80
2018-11-05T23:28:18.638Z,10.58
2018-11-05T23:30:46.725Z,9.83
2018-11-05T23:33:14.846Z,10.28
2018-11-05T23:35:42.884Z,7.90
2018-11-05T23:38:11.272Z,9.88
2018-11-05T23:40:39.412Z,9.70
2018-11-05T23:43:07.488Z,10.18
2018-11-05T23:45:35.600Z,9.10
2018-11-05T23:48:03.688Z,9.73
2018-11-05T23:50:31.812Z,9.33
2018-11-05T23:52:59.964Z,9.88
2018-11-05T23:55:27.997Z,9.85
2018-11-05T23:57:56.117Z,8.40
